createdAt,value
2022-09-27T00:01:39.976Z,-108.00
2022-09-27T00:06:47.028Z,-108.00
2022-09-27T00:11:54.206Z,-144.00
2022-09-27T00:17:01.470Z,-144.00
2022-09-27T00:22:08.620Z,-144.00
2022-09-27T00:27:15.776Z,-108.00
2022-09-27T00:32:22.989Z,-108.00
2022-09-27T00:37:30.156Z,-144.00
2022-09-27T00:42:37.365Z,-108.00
2022-09-27T00:47:44.629Z,-108.00
2022-09-27T00:52:51.837Z,-144.00
2022-09-27T00:57:59.010Z,-144.00
2022-09-27T01:03:06.236Z,-144.00
2022-09-27T01:08:13.412Z,-144.00
2022-09-27T01:13:20.685Z,-108.00
2022-09-27T01:18:27.999Z,-108.00
2022-09-27T01:23:35.151Z,-108.00
2022-09-27T01:28:42.335Z,-144.00
2022-09-27T01:33:49.615Z,-144.00
2022-09-27T01:38:56.852Z,-144.00
2022-09-27T01:44:04.059Z,-144.00
2022-09-27T01:49:11.291Z,-108.00
2022-09-27T01:54:18.465Z,-108.00
2022-09-27T01:59:25.689Z,-108.00
2022-09-27T02:04:32.913Z,-108.00
2022-09-27T02:09:40.046Z,-144.00
2022-09-27T02:14:47.285Z,-108.00
2022-09-27T02:19:54.631Z,-108.00
2022-09-27T02:25:01.785Z,-144.00
2022-09-27T02:30:09.028Z,-144.00
2022-09-27T02:35:16.258Z,-144.00
2022-09-27T02:40:23.566Z,-144.00
2022-09-27T02:45:30.635Z,-108.00
2022-09-27T02:50:37.866Z,-108.00
2022-09-27T02:55:45.060Z,-144.00
2022-09-27T03:00:52.349Z,-108.00
2022-09-27T03:05:59.560Z,-108.00
2022-09-27T03:11:06.735Z,-108.00
2022-09-27T03:16:13.951Z,-144.00
2022-09-27T03:21:21.243Z,-108.00
2022-09-27T03:26:28.478Z,-108.00
2022-09-27T03:31:35.761Z,-144.00
2022-09-27T03:36:42.997Z,-108.00
2022-09-27T03:41:50.232Z,-144.00
2022-09-27T03:46:57.482Z,-144.00
2022-09-27T03:52:04.724Z,-108.00
2022-09-27T03:57:11.909Z,-108.00
2022-09-27T04:02:19.149Z,-108.00
2022-09-27T04:07:26.287Z,-108.00
2022-09-27T04:12:33.519Z,-108.00
2022-09-27T04:17:40.716Z,-108.00
2022-09-27T04:22:47.955Z,-108.00
2022-09-27T04:27:55.247Z,-108.00
2022-09-27T04:33:02.477Z,-108.00
2022-09-27T04:38:09.768Z,-144.00
2022-09-27T04:43:16.967Z,-108.00
2022-09-27T04:48:24.312Z,-144.00
2022-09-27T04:53:31.695Z,-144.00
2022-09-27T04:58:38.877Z,-108.00
2022-09-27T05:03:46.569Z,-144.00
2022-09-27T05:08:53.832Z,-108.00
2022-09-27T05:14:01.058Z,-108.00
2022-09-27T05:19:09.223Z,-108.00
2022-09-27T05:24:16.352Z,-108.00
2022-09-27T05:29:23.530Z,-144.00
2022-09-27T05:34:30.727Z,-144.00
2022-09-27T05:39:37.970Z,-108.00
2022-09-27T05:44:45.134Z,-108.00
2022-09-27T05:49:52.312Z,-144.00
2022-09-27T05:54:59.557Z,-108.00
2022-09-27T06:00:07.260Z,-108.00
2022-09-27T06:05:14.484Z,-108.00
2022-09-27T06:10:21.696Z,-144.00
2022-09-27T06:15:28.828Z,-108.00
2022-09-27T06:20:36.078Z,-108.00
2022-09-27T06:25:43.301Z,-108.00
2022-09-27T06:31:04.615Z,540.00
2022-09-27T06:36:11.764Z,684.00
2022-09-27T06:41:18.941Z,1692.00
2022-09-27T06:46:26.170Z,1404.00
2022-09-27T06:51:33.350Z,2016.00
2022-09-27T06:56:40.629Z,1728.00
2022-09-27T07:01:47.993Z,2052.00
2022-09-27T07:06:55.253Z,4248.00
2022-09-27T07:12:02.505Z,5112.00
2022-09-27T07:17:09.656Z,6264.00
2022-09-27T07:22:16.869Z,8028.00
2022-09-27T07:27:24.101Z,5760.00
2022-09-27T07:32:31.274Z,5760.00
2022-09-27T07:37:38.489Z,3240.00
2022-09-27T07:42:46.017Z,4068.00
2022-09-27T07:47:53.193Z,1584.00
2022-09-27T07:53:00.384Z,1080.00
2022-09-27T07:58:07.815Z,1656.00
2022-09-27T08:03:15.040Z,1872.00
2022-09-27T08:08:22.255Z,3924.00
2022-09-27T08:13:29.655Z,1980.00
2022-09-27T08:18:37.107Z,3024.00
2022-09-27T08:23:44.352Z,5076.00
2022-09-27T08:28:51.745Z,3420.00
2022-09-27T08:33:58.866Z,4500.00
2022-09-27T08:39:06.072Z,6444.00
2022-09-27T08:44:13.651Z,5796.00
2022-09-27T08:49:23.486Z,7092.00
2022-09-27T08:54:30.679Z,7956.00
2022-09-27T08:59:37.956Z,8352.00
2022-09-27T09:04:45.165Z,6444.00
2022-09-27T09:09:52.561Z,6192.00
2022-09-27T09:14:59.908Z,9972.00
2022-09-27T09:20:06.977Z,7992.00
2022-09-27T09:25:14.183Z,6048.00
2022-09-27T09:30:21.591Z,9036.00
2022-09-27T09:35:28.641Z,7668.00
2022-09-27T09:40:35.859Z,10872.00
2022-09-27T09:45:43.105Z,8928.00
2022-09-27T09:50:50.207Z,7380.00
2022-09-27T09:55:57.428Z,7416.00
2022-09-27T10:01:04.908Z,7668.00
2022-09-27T10:06:26.797Z,11124.00
2022-09-27T10:11:33.988Z,9324.00
2022-09-27T10:16:41.308Z,10764.00
2022-09-27T10:21:48.402Z,11988.00
2022-09-27T10:26:55.606Z,7344.00
2022-09-27T10:32:02.818Z,10944.00
2022-09-27T10:37:10.027Z,7848.00
2022-09-27T10:42:17.228Z,10260.00
2022-09-27T10:47:24.472Z,9180.00
2022-09-27T10:52:31.634Z,7308.00
2022-09-27T10:57:42.968Z,5868.00
2022-09-27T11:02:46.120Z,4068.00
2022-09-27T11:07:53.862Z,9396.00
2022-09-27T11:13:01.129Z,7812.00
2022-09-27T11:18:08.472Z,10260.00
2022-09-27T11:23:15.669Z,8640.00
2022-09-27T11:28:22.881Z,7236.00
2022-09-27T11:33:30.113Z,8712.00
2022-09-27T11:38:53.947Z,4392.00
2022-09-27T11:43:44.578Z,3456.00
2022-09-27T11:48:51.817Z,5076.00
2022-09-27T11:53:58.985Z,4536.00
2022-09-27T11:59:06.184Z,7380.00
2022-09-27T12:04:13.447Z,3456.00
2022-09-27T12:09:20.569Z,2844.00
2022-09-27T12:14:27.770Z,2412.00
2022-09-27T12:19:35.043Z,2988.00
2022-09-27T12:24:42.150Z,2988.00
2022-09-27T12:29:49.414Z,3384.00
2022-09-27T12:34:56.711Z,8424.00
2022-09-27T12:40:04.002Z,8784.00
2022-09-27T12:45:11.317Z,8892.00
2022-09-27T12:50:18.606Z,8748.00
2022-09-27T12:55:25.855Z,6300.00
2022-09-27T13:00:33.098Z,5040.00
2022-09-27T13:05:40.298Z,5004.00
2022-09-27T13:10:47.486Z,8460.00
2022-09-27T13:15:54.707Z,6192.00
2022-09-27T13:21:01.917Z,8640.00
2022-09-27T13:26:09.086Z,7668.00
2022-09-27T13:31:16.683Z,6948.00
2022-09-27T13:36:23.642Z,7524.00
2022-09-27T13:41:31.023Z,8028.00
2022-09-27T13:46:38.408Z,9000.00
2022-09-27T13:51:45.753Z,9396.00
2022-09-27T13:56:52.946Z,7668.00
2022-09-27T14:02:00.306Z,8280.00
2022-09-27T14:07:07.356Z,6804.00
2022-09-27T14:12:14.550Z,6624.00
2022-09-27T14:17:21.825Z,8244.00
2022-09-27T14:22:29.050Z,7884.00
2022-09-27T14:27:36.317Z,7884.00
2022-09-27T14:32:43.578Z,6516.00
2022-09-27T14:37:51.736Z,5436.00
2022-09-27T14:42:58.971Z,7092.00
2022-09-27T14:48:06.581Z,4680.00
2022-09-27T14:53:13.846Z,9288.00
2022-09-27T14:58:43.103Z,8568.00
2022-09-27T15:03:28.428Z,8028.00
2022-09-27T15:08:35.602Z,7596.00
2022-09-27T15:13:42.761Z,7020.00
2022-09-27T15:18:49.981Z,7128.00
2022-09-27T15:23:57.198Z,4788.00
2022-09-27T15:29:04.389Z,5652.00
2022-09-27T15:34:11.559Z,5004.00
2022-09-27T15:39:19.077Z,5004.00
2022-09-27T15:44:25.964Z,6624.00
2022-09-27T15:49:33.191Z,3312.00
2022-09-27T15:54:40.435Z,3564.00
2022-09-27T15:59:47.606Z,2448.00
2022-09-27T16:04:54.781Z,1404.00
2022-09-27T16:10:02.021Z,1512.00
2022-09-27T16:15:09.252Z,2016.00
2022-09-27T16:20:16.528Z,1116.00
2022-09-27T16:25:23.828Z,1188.00
2022-09-27T16:30:31.142Z,1260.00
2022-09-27T16:35:38.379Z,1008.00
2022-09-27T16:40:45.754Z,468.00
2022-09-27T16:45:52.842Z,288.00
2022-09-27T16:51:00.134Z,108.00
2022-09-27T16:56:07.380Z,-36.00
2022-09-27T17:01:14.717Z,-36.00
2022-09-27T17:06:21.814Z,-72.00
2022-09-27T17:11:29.080Z,-72.00
2022-09-27T17:16:36.257Z,-144.00
2022-09-27T17:21:43.486Z,-144.00
2022-09-27T17:26:50.700Z,-144.00
2022-09-27T17:31:57.905Z,-144.00
2022-09-27T17:37:05.080Z,-144.00
2022-09-27T17:42:12.341Z,-144.00
2022-09-27T17:47:19.653Z,-144.00
2022-09-27T17:52:26.914Z,-144.00
2022-09-27T17:57:34.121Z,-144.00
2022-09-27T18:02:41.654Z,7488.00
2022-09-27T18:07:48.871Z,7380.00
2022-09-27T18:12:56.142Z,7344.00
2022-09-27T18:18:03.365Z,7344.00
2022-09-27T18:23:10.665Z,7344.00
2022-09-27T18:28:17.899Z,7452.00
2022-09-27T18:33:25.154Z,7668.00
2022-09-27T18:38:34.421Z,7308.00
2022-09-27T18:43:42.037Z,7308.00
2022-09-27T18:48:49.526Z,7308.00
2022-09-27T18:53:57.253Z,7776.00
2022-09-27T18:59:04.889Z,7956.00
2022-09-27T19:04:12.197Z,7848.00
2022-09-27T19:09:19.614Z,7704.00
2022-09-27T19:14:27.108Z,7704.00
2022-09-27T19:19:34.596Z,7596.00
2022-09-27T19:24:42.018Z,7848.00
2022-09-27T19:29:49.588Z,7848.00
2022-09-27T19:34:57.132Z,7848.00
2022-09-27T19:40:05.063Z,7740.00
2022-09-27T19:45:12.695Z,7776.00
2022-09-27T19:50:20.081Z,7524.00
2022-09-27T19:55:27.312Z,7452.00
2022-09-27T20:00:34.580Z,7776.00
2022-09-27T20:05:41.750Z,7380.00
2022-09-27T20:10:49.306Z,7380.00
2022-09-27T20:15:56.797Z,7488.00
2022-09-27T20:21:04.226Z,7236.00
2022-09-27T20:26:11.603Z,7200.00
2022-09-27T20:31:19.055Z,7452.00
2022-09-27T20:36:26.138Z,7236.00
2022-09-27T20:41:33.380Z,7380.00
2022-09-27T20:46:40.715Z,7020.00
2022-09-27T20:51:47.781Z,6948.00
2022-09-27T20:56:54.982Z,6984.00
2022-09-27T21:02:02.260Z,7272.00
2022-09-27T21:07:09.403Z,6876.00
2022-09-27T21:12:16.684Z,7200.00
2022-09-27T21:17:23.922Z,7272.00
2022-09-27T21:22:31.095Z,7416.00
2022-09-27T21:27:38.302Z,7596.00
2022-09-27T21:32:45.546Z,7632.00
2022-09-27T21:37:52.736Z,7632.00
2022-09-27T21:42:59.923Z,7632.00
2022-09-27T21:48:07.135Z,7488.00
2022-09-27T21:53:14.306Z,7524.00
2022-09-27T21:58:21.452Z,7560.00
2022-09-27T22:03:28.638Z,7236.00
2022-09-27T22:08:35.834Z,7596.00
2022-09-27T22:13:43.041Z,7452.00
2022-09-27T22:18:50.363Z,7200.00
2022-09-27T22:23:57.465Z,7344.00
2022-09-27T22:29:04.676Z,7452.00
2022-09-27T22:34:11.868Z,7164.00
2022-09-27T22:39:19.064Z,7236.00
2022-09-27T22:44:26.260Z,7452.00
2022-09-27T22:49:33.525Z,7200.00
2022-09-27T22:54:40.656Z,7452.00
2022-09-27T22:59:47.899Z,7200.00
2022-09-27T23:04:55.123Z,7164.00
2022-09-27T23:10:02.310Z,7452.00
2022-09-27T23:15:09.492Z,7200.00
2022-09-27T23:20:16.729Z,7416.00
2022-09-27T23:25:23.908Z,1008.00
2022-09-27T23:30:31.118Z,-144.00
2022-09-27T23:35:38.368Z,-144.00
2022-09-27T23:40:45.582Z,-108.00
2022-09-27T23:45:52.701Z,-144.00
2022-09-27T23:50:59.993Z,-144.00
2022-09-27T23:56:07.181Z,-108.00
